Results by/Résultats par Info:[email protected] Phone: (613)723-0994

                                     K-TOWN TRIATHLON
                    
                                   Sunday August 3, 2008

                           Confederation Park, Kingston, Ontario

                          Overall Results - Long Course Triathlon

  -----FINAL----- ----------------------- ------------ -------------------- ----          2 km                     56.5 km                 15 km          Minus
                                                       Category                   ------SWIM + T1-------  ----------BIKE--------  -------RUN + T2-------- ------
    Pos     Time  Name                    City         Plc/Total Category     #    Cat  Ovr  Time  /100m   Cat Ovr Time  km/hr    Cat  Ovr  Time     km   Bridge
  ------  ------- ----------------------- ------------ -------------------- ----  ----------------------  ----------------------  ----------------------- ------
    1     2:45:55 PHYSI KULT                           1/10  Men's Relay   826  1      1   29:00  1:27  1      3 1:28:06  38.5  1      1   48:50  3:16         
    2     2:46:26 BEATTY RADFORD MYERS                 1/14  Coed Relay    828  2      3   33:22  1:41  2      2 1:23:00  40.8  1      2   50:05  3:21         
    3     2:54:18 ER DOCS                              2/10  Men's Relay   829                          8                       2      3   57:33  3:51         
    4     3:12:33 BUNS OF STEEL                        2/14  Coed Relay    814  3      4   33:43  1:42  5      7 1:39:25  34.1  2      4   59:26  3:58         
    5     3:25:52 BATSON AND MONAHAN                   3/10  Men's Relay   827  6     12   42:11  2:07  2      6 1:39:15  34.2  3      5 1:04:27  4:18         
    6     3:29:56 THE DRIVE                            4/10  Men's Relay   801  3      7   36:47  1:51  3      9 1:41:52  33.3  5     12 1:11:17  4:46         
    7     3:30:35 JOHN PUS                             3/14  Coed Relay    821  4      5   36:23  1:50  7     10 1:42:59  32.9  6     11 1:11:13  4:45         
    8     3:31:44 SPINNERON                            4/14  Coed Relay    823  6     13   43:18  2:10  4      5 1:38:59  34.2  4      8 1:09:28  4:38         
    9     3:35:35 LOCH-HUBBARD                         5/14  Coed Relay    824  5     11   39:50  2:00  8     12 1:49:08  31.1  3      7 1:06:38  4:27         
   10     3:43:10 TRY FORCE                            5/10  Men's Relay   820  2      6   36:36  1:50  7     18 2:01:06  28.0  4      6 1:05:29  4:22         
   11 PEN 3:47:03 LOONS                                6/14  Coed Relay    806  11    21   53:47  2:42  1      1 1:18:36  43.1  10    19 1:29:41  5:59         
   12     3:47:28 MAURICE AND WALKERS                  6/10  Men's Relay   817  4      8   36:49  1:51  5     13 1:53:03  30.0  7     16 1:17:37  5:11         
   13 PEN 3:49:12 LOOSEY GOOSEY                        7/14  Coed Relay    813  12    22   55:13  2:46  3      4 1:37:44  34.7  8     15 1:14:16  4:58         
   14     3:50:01 THE SPARE TIRES                      7/10  Men's Relay   815  7     16   47:54  2:24  4     11 1:48:57  31.1  6     14 1:13:11  4:53         
   15     3:51:42 BARRACUDA TRIO                       8/14  Coed Relay    822  1      2   31:38  1:35  11    20 2:08:15  26.4  7     13 1:11:50  4:48         
   16     3:57:12 SUMMER FUN                           1/4   Women's Rela  816  2     14   45:50  2:18  2     19 2:01:55  27.8  1      9 1:09:28  4:38         
   17     3:59:58 TWO NERD AND A BIKE                  8/10  Men's Relay   819  5      9   36:52  1:51  6     14 1:53:42  29.8  8     18 1:29:24  5:58         
   18     4:01:27 CAPITAL CRUISERS                     9/14  Coed Relay    803  8     17   50:19  2:31  10    17 2:00:17  28.2  5     10 1:10:52  4:44         
   19     4:13:49 RUN SPORTS                          10/14  Coed Relay    804  10    20   53:37  2:41  9     15 1:55:23  29.4  9     17 1:24:50  5:40         
   20     4:20:56 CALLIPYGANS                         11/14  Coed Relay    807                          14                      12    23 1:33:26  6:14         
   21     4:26:28 YOU CAN DO IT                        2/4   Women's Rela  810  1     10   38:45  1:57  4     22 2:16:51  24.8  3     22 1:30:53  6:04         
   22     4:29:51 THE MIRACLES                         3/4   Women's Rela  818  3     18   50:41  2:33  3     21 2:08:56  26.3  2     21 1:30:15  6:01         
   23     4:38:03 KIELEC AND DACOSTA                  12/14  Coed Relay    825  7     15   46:47  2:21  6      8 1:41:50  33.3  14    26 2:09:27  8:38         
   24     4:38:50 HOT CHICK                           13/14  Coed Relay    812  9     19   52:00  2:36  12    23 2:16:52  24.8  11    20 1:30:01  6:01    0:02 
   25     4:49:57 PRINSEN TRUMAN BRAKE                14/14  Coed Relay    808                          13                      13    25 2:07:05  8:29         
   26     4:51:32 WE CAN DO IT                         4/4   Women's Rela  811  4     23 1:12:08  3:37  1     16 1:57:22  28.9  4     24 1:42:04  6:49         
   27             PIERRE GELINEAU                      9/10  Men's Relay   830                                                                            1:47 
   28             CHEN COHEN                          10/10  Men's Relay   832                                                                            1:43